Time;durP1;ratioP1;P1;durP2;ratioP2;P2;SDS_P1;SDS_P2;PMS_P1;PMS_P2;Temp;Humidity;BMP_temperature;BMP_pressure;BME280_temperature;BME280_humidity;BME280_pressure;Samples;Min_cycle;Max_cycle;Signal;HPM_P1;HPM_P2
2023/04/08 00:02:20;;;;;;;14.37;11.13;;;11.20;99.90;;;;;;5004834;28;20465;-84
2023/04/08 00:05:00;;;;;;;15.60;11.40;;;11.10;99.90;;;;;;5004288;28;20587;-82
2023/04/08 00:07:27;;;;;;;15.13;11.10;;;11.10;99.90;;;;;;5004216;28;20848;-82
2023/04/08 00:09:56;;;;;;;14.50;11.57;;;11.00;99.90;;;;;;5004634;28;20460;-83
2023/04/08 00:12:26;;;;;;;14.33;10.30;;;11.00;99.90;;;;;;5022618;28;20524;-83
2023/04/08 00:15:00;;;;;;;15.80;10.83;;;11.00;99.90;;;;;;5009390;28;20497;-82
2023/04/08 00:17:44;;;;;;;14.20;9.97;;;11.10;99.90;;;;;;5007478;28;20560;-82
2023/04/08 00:20:14;;;;;;;16.40;11.57;;;11.00;99.90;;;;;;5003408;28;20542;-82
2023/04/08 00:22:42;;;;;;;15.27;10.10;;;11.00;99.90;;;;;;5021950;28;20465;-84
2023/04/08 00:25:19;;;;;;;13.63;10.97;;;11.00;99.90;;;;;;5003581;28;20942;-84
2023/04/08 00:27:54;;;;;;;15.37;11.33;;;11.00;99.90;;;;;;5004355;28;20457;-82
2023/04/08 00:30:26;;;;;;;15.03;10.47;;;11.00;99.90;;;;;;5002849;28;20468;-82
2023/04/08 00:32:57;;;;;;;13.37;11.13;;;11.00;99.90;;;;;;5003702;28;20484;-82
2023/04/08 00:35:46;;;;;;;15.63;11.47;;;10.90;99.90;;;;;;5006743;28;20536;-83
2023/04/08 00:38:29;;;;;;;14.73;10.90;;;10.90;99.90;;;;;;5003724;28;20503;-83
2023/04/08 00:41:07;;;;;;;17.53;11.83;;;11.00;99.90;;;;;;5001917;28;20468;-82
2023/04/08 00:43:48;;;;;;;16.87;11.73;;;11.00;99.90;;;;;;5002290;28;20553;-82
2023/04/08 00:46:48;;;;;;;15.27;11.27;;;11.00;99.90;;;;;;5002985;28;20457;-84
2023/04/08 00:49:24;;;;;;;15.00;11.07;;;11.00;99.90;;;;;;4999117;28;20522;-83
2023/04/08 00:51:54;;;;;;;19.77;12.00;;;11.00;99.90;;;;;;5019843;28;20490;-81
2023/04/08 00:54:33;;;;;;;13.60;10.63;;;11.00;99.90;;;;;;4999005;28;20489;-82
2023/04/08 00:57:15;;;;;;;14.93;11.03;;;10.90;99.90;;;;;;5002508;28;20515;-85
2023/04/08 00:59:46;;;;;;;17.53;11.30;;;11.00;99.90;;;;;;5028784;28;20457;-83
2023/04/08 01:02:46;;;;;;;17.47;11.30;;;11.00;99.90;;;;;;5009928;28;20465;-84
2023/04/08 01:05:55;;;;;;;16.00;11.27;;;10.90;99.90;;;;;;5009404;28;20481;-84
2023/04/08 01:08:40;;;;;;;27.67;13.23;;;10.90;99.90;;;;;;5007512;28;20457;-83
2023/04/08 01:11:22;;;;;;;17.63;13.80;;;10.90;99.90;;;;;;5007403;28;20523;-84
2023/04/08 01:14:05;;;;;;;20.73;13.70;;;10.90;99.90;;;;;;4989954;28;20481;-84
2023/04/08 01:16:45;;;;;;;17.07;12.27;;;10.90;99.90;;;;;;5553393;22;20530;-84
2023/04/08 01:19:43;;;;;;;21.20;12.20;;;10.90;99.90;;;;;;5076443;28;20540;-83
2023/04/08 01:22:40;;;;;;;17.30;14.80;;;10.90;99.90;;;;;;5076705;28;20455;-84
2023/04/08 01:25:31;;;;;;;20.30;12.00;;;10.90;99.90;;;;;;5066626;28;20573;-84
2023/04/08 01:28:24;;;;;;;20.17;14.17;;;10.90;99.90;;;;;;5062583;28;20479;-82
2023/04/08 01:30:59;;;;;;;27.73;14.93;;;11.10;99.90;;;;;;5054840;28;20456;-83
2023/04/08 01:33:40;;;;;;;22.77;13.73;;;11.20;99.90;;;;;;5069330;28;20498;-84
2023/04/08 01:36:10;;;;;;;21.20;13.80;;;11.20;99.90;;;;;;5116235;22;20488;-83
2023/04/08 01:38:47;;;;;;;20.10;13.40;;;11.10;99.90;;;;;;5041041;28;21245;-83
2023/04/08 01:41:21;;;;;;;24.17;13.40;;;11.10;99.90;;;;;;5052270;28;20435;-81
2023/04/08 01:43:56;;;;;;;15.87;12.77;;;11.00;99.90;;;;;;5052353;28;20496;-81
2023/04/08 01:46:33;;;;;;;18.30;11.60;;;11.00;99.90;;;;;;5025971;28;20455;-82
2023/04/08 01:49:27;;;;;;;19.50;12.60;;;11.00;99.90;;;;;;5034912;28;20460;-84
2023/04/08 01:52:06;;;;;;;18.03;12.63;;;10.90;99.90;;;;;;5030417;28;20464;-84
2023/04/08 01:54:47;;;;;;;15.40;11.40;;;11.00;99.90;;;;;;5014781;28;20849;-82
2023/04/08 01:57:26;;;;;;;24.07;13.40;;;11.00;99.90;;;;;;5042653;28;20477;-82
2023/04/08 02:00:17;;;;;;;19.43;14.37;;;11.00;99.90;;;;;;5044056;28;20519;-83
2023/04/08 02:02:53;;;;;;;15.60;11.73;;;11.00;99.90;;;;;;5042470;28;20468;-81
2023/04/08 02:05:25;;;;;;;17.47;13.07;;;10.90;99.90;;;;;;5048886;28;20540;-82
2023/04/08 02:08:00;;;;;;;19.10;12.83;;;10.90;99.90;;;;;;5045336;28;20456;-81
2023/04/08 02:10:37;;;;;;;23.67;13.47;;;10.90;99.90;;;;;;5048630;28;20476;-82
2023/04/08 02:13:11;;;;;;;18.63;12.97;;;11.00;99.90;;;;;;5049623;28;20512;-81
2023/04/08 02:15:48;;;;;;;18.40;13.30;;;11.00;99.90;;;;;;5037603;28;20457;-81
2023/04/08 02:18:33;;;;;;;20.83;13.33;;;10.90;99.90;;;;;;5033482;28;20453;-82
2023/04/08 02:21:25;;;;;;;18.80;13.00;;;10.90;99.90;;;;;;5022785;28;20956;-84
2023/04/08 02:24:07;;;;;;;18.17;13.27;;;10.90;99.90;;;;;;5013158;28;20527;-83
2023/04/08 02:26:51;;;;;;;23.73;13.70;;;10.90;99.90;;;;;;5024245;28;20462;-83
2023/04/08 02:29:35;;;;;;;17.30;13.07;;;11.00;99.90;;;;;;5014450;28;20465;-81
2023/04/08 02:32:10;;;;;;;20.77;12.30;;;10.90;99.90;;;;;;5014532;28;20458;-82
2023/04/08 02:37:57;;;;;;;23.23;12.80;;;10.80;99.90;;;;;;5012279;28;20466;-81
2023/04/08 02:40:59;;;;;;;20.50;13.83;;;10.70;99.90;;;;;;5012352;28;20434;-82
2023/04/08 02:43:35;;;;;;;16.63;11.70;;;10.70;99.90;;;;;;4973337;28;21152;-84
2023/04/08 02:46:12;;;;;;;23.30;12.67;;;10.70;99.90;;;;;;5008648;28;20484;-84
2023/04/08 02:48:48;;;;;;;19.47;14.13;;;10.60;99.90;;;;;;5005752;28;20444;-82
2023/04/08 02:51:18;;;;;;;18.87;12.90;;;10.60;99.90;;;;;;5013835;28;20522;-83
2023/04/08 02:53:49;;;;;;;17.50;13.07;;;10.60;99.90;;;;;;5012972;28;20476;-81
2023/04/08 02:56:28;;;;;;;25.00;15.13;;;10.60;99.90;;;;;;5013994;28;20962;-83
2023/04/08 02:59:36;;;;;;;20.80;12.83;;;10.60;99.90;;;;;;5009319;28;20459;-84
2023/04/08 03:02:22;;;;;;;15.47;12.70;;;10.60;99.90;;;;;;5009891;28;20472;-81
2023/04/08 03:05:02;;;;;;;21.10;13.63;;;10.50;99.90;;;;;;5018190;28;20586;-83
2023/04/08 03:07:40;;;;;;;17.73;12.40;;;10.50;99.90;;;;;;5019088;28;20472;-83
2023/04/08 03:10:21;;;;;;;21.13;15.23;;;10.60;99.90;;;;;;5011857;28;20459;-84
2023/04/08 03:13:11;;;;;;;21.47;14.33;;;10.50;99.90;;;;;;5010886;28;20463;-83
2023/04/08 03:15:52;;;;;;;19.07;13.60;;;10.50;99.90;;;;;;5020265;28;20570;-82
2023/04/08 03:18:20;;;;;;;22.87;14.73;;;10.50;99.90;;;;;;5021679;28;20453;-82
2023/04/08 03:20:56;;;;;;;21.70;13.30;;;10.50;99.90;;;;;;5019638;28;21350;-83
2023/04/08 03:23:35;;;;;;;20.00;13.33;;;10.40;99.90;;;;;;5016175;28;20548;-81
2023/04/08 03:26:03;;;;;;;24.17;14.80;;;10.40;99.90;;;;;;5018218;28;21005;-84
2023/04/08 03:28:33;;;;;;;24.90;14.90;;;10.40;99.90;;;;;;5019961;28;20483;-83
2023/04/08 03:31:23;;;;;;;19.10;13.60;;;10.40;99.90;;;;;;5021028;28;20441;-81
2023/04/08 03:33:56;;;;;;;19.00;14.20;;;10.50;99.90;;;;;;5014639;28;20492;-82
2023/04/08 03:36:33;;;;;;;23.93;14.27;;;10.40;99.90;;;;;;5020429;28;20465;-81
2023/04/08 03:39:02;;;;;;;22.17;14.27;;;10.40;99.90;;;;;;5024066;28;20457;-82
2023/04/08 03:41:40;;;;;;;20.33;13.27;;;10.50;99.90;;;;;;5059348;28;20748;-81
2023/04/08 03:44:09;;;;;;;18.00;13.67;;;10.50;99.90;;;;;;5037722;28;20461;-81
2023/04/08 03:46:40;;;;;;;18.53;13.57;;;10.50;99.90;;;;;;5013297;28;20777;-81
2023/04/08 03:49:17;;;;;;;20.63;13.97;;;10.50;99.90;;;;;;5033352;28;20443;-80
2023/04/08 03:51:49;;;;;;;20.17;15.33;;;10.50;99.90;;;;;;5034783;28;20433;-81
2023/04/08 03:54:19;;;;;;;22.37;14.10;;;10.50;99.90;;;;;;5042954;28;20465;-81
2023/04/08 03:56:48;;;;;;;21.13;15.20;;;10.50;99.90;;;;;;5054699;28;20536;-81
2023/04/08 03:59:21;;;;;;;24.57;14.23;;;10.40;99.90;;;;;;5042878;28;20457;-84
2023/04/08 04:01:50;;;;;;;20.57;14.10;;;10.50;99.90;;;;;;5037912;28;20540;-84
2023/04/08 04:04:22;;;;;;;22.90;15.30;;;10.40;99.90;;;;;;4993654;28;20477;-84
2023/04/08 04:06:49;;;;;;;21.33;15.40;;;10.50;99.90;;;;;;5024808;28;20502;-83
2023/04/08 04:09:19;;;;;;;22.10;14.93;;;10.50;99.90;;;;;;5018517;28;22469;-82
2023/04/08 04:11:51;;;;;;;20.37;13.57;;;10.50;99.90;;;;;;5017368;28;20477;-82
2023/04/08 04:14:23;;;;;;;22.50;14.17;;;10.60;99.90;;;;;;5027947;28;20803;-83
2023/04/08 04:16:50;;;;;;;18.30;14.43;;;10.50;99.90;;;;;;5061257;28;21097;-82
2023/04/08 04:19:22;;;;;;;25.10;15.90;;;10.60;99.90;;;;;;5040872;28;20452;-81
2023/04/08 04:21:49;;;;;;;22.33;14.73;;;10.60;99.90;;;;;;5052926;28;20491;-83
2023/04/08 04:24:24;;;;;;;23.97;14.90;;;10.70;99.90;;;;;;5045145;28;20511;-82
2023/04/08 04:26:54;;;;;;;24.50;15.20;;;10.60;99.90;;;;;;5054221;28;20477;-81
2023/04/08 04:29:30;;;;;;;20.07;15.60;;;10.60;99.90;;;;;;5017343;28;20538;-81
2023/04/08 04:32:00;;;;;;;24.73;16.00;;;10.50;99.90;;;;;;5023665;28;20509;-83
2023/04/08 04:34:32;;;;;;;20.60;14.10;;;10.70;99.90;;;;;;5023678;28;20564;-81
2023/04/08 04:37:07;;;;;;;22.33;15.43;;;10.60;99.90;;;;;;5020807;28;20457;-82
2023/04/08 04:39:40;;;;;;;25.67;15.20;;;10.70;99.90;;;;;;5021815;28;20461;-82
2023/04/08 04:42:16;;;;;;;23.70;15.80;;;10.70;99.90;;;;;;5020315;28;20982;-82
2023/04/08 04:44:43;;;;;;;26.13;15.97;;;10.60;99.90;;;;;;5019456;28;20513;-83
2023/04/08 04:47:11;;;;;;;23.73;17.17;;;10.60;99.90;;;;;;5019401;28;20481;-84
2023/04/08 04:49:50;;;;;;;;;;;;;;;;;;;;;
2023/04/08 04:52:20;;;;;;;35.43;18.90;;;10.60;99.90;;;;;;5023007;28;20449;-84
2023/04/08 04:54:47;;;;;;;23.63;15.87;;;10.60;99.90;;;;;;5022174;28;20470;-83
2023/04/08 04:57:22;;;;;;;24.50;15.80;;;10.60;99.90;;;;;;5021834;28;20578;-83
2023/04/08 04:59:54;;;;;;;23.83;16.03;;;10.50;99.90;;;;;;5020743;28;20441;-82
2023/04/08 05:02:21;;;;;;;27.30;17.20;;;10.60;99.90;;;;;;5019763;28;21148;-82
2023/04/08 05:04:48;;;;;;;25.53;16.50;;;10.60;99.90;;;;;;5020687;28;20864;-82
2023/04/08 05:07:28;;;;;;;21.93;15.77;;;10.60;99.90;;;;;;5018995;28;20472;-83
2023/04/08 05:10:01;;;;;;;24.60;18.00;;;10.60;99.90;;;;;;5014663;28;21492;-82
2023/04/08 05:12:35;;;;;;;27.77;16.47;;;10.60;99.90;;;;;;5016223;28;20457;-83
2023/04/08 05:15:06;;;;;;;26.87;16.53;;;10.60;99.90;;;;;;5017103;28;20549;-82
2023/04/08 05:17:35;;;;;;;24.07;16.07;;;10.60;99.90;;;;;;5018652;28;21091;-84
2023/04/08 05:20:04;;;;;;;31.03;17.63;;;10.60;99.90;;;;;;5020213;28;21036;-82
2023/04/08 05:22:36;;;;;;;22.87;15.73;;;10.60;99.90;;;;;;5018530;28;20533;-81
2023/04/08 05:25:06;;;;;;;23.97;17.20;;;10.60;99.90;;;;;;5018553;28;20501;-81
2023/04/08 05:27:39;;;;;;;25.20;17.80;;;10.50;99.90;;;;;;5032787;28;20485;-82
2023/04/08 05:30:08;;;;;;;24.03;16.90;;;10.50;99.90;;;;;;5031471;28;20461;-84
2023/04/08 05:32:42;;;;;;;22.47;16.37;;;10.50;99.90;;;;;;5030719;28;20492;-81
2023/04/08 05:35:12;;;;;;;22.43;15.60;;;10.50;99.90;;;;;;5020266;28;20472;-83
2023/04/08 05:37:39;;;;;;;24.43;15.67;;;10.60;99.90;;;;;;5015081;28;20540;-81
2023/04/08 05:40:09;;;;;;;20.37;14.47;;;10.60;99.90;;;;;;5017861;28;20458;-82
2023/04/08 05:42:41;;;;;;;26.57;18.20;;;10.60;99.90;;;;;;5017773;28;20546;-84
2023/04/08 05:45:09;;;;;;;29.10;18.30;;;11.00;99.90;;;;;;5017875;28;20465;-82
2023/04/08 05:47:45;;;;;;;24.13;17.50;;;11.00;99.90;;;;;;5019654;28;20487;-82
2023/04/08 05:50:13;;;;;;;23.73;16.50;;;10.90;99.90;;;;;;5016394;28;20450;-84
2023/04/08 05:52:43;;;;;;;27.33;17.53;;;10.80;99.90;;;;;;5016584;28;20485;-84
2023/04/08 05:55:14;;;;;;;26.17;17.47;;;11.10;99.90;;;;;;5015334;28;20481;-83
2023/04/08 05:57:41;;;;;;;27.03;17.03;;;11.10;99.90;;;;;;5016143;28;20453;-83
2023/04/08 06:00:09;;;;;;;28.43;19.20;;;10.90;99.90;;;;;;5014269;28;20461;-83
2023/04/08 06:02:36;;;;;;;26.60;18.03;;;11.10;99.90;;;;;;5026798;28;20437;-83
2023/04/08 06:05:03;;;;;;;24.43;16.97;;;10.90;99.90;;;;;;5018384;28;20504;-83
2023/04/08 06:07:31;;;;;;;27.97;18.30;;;10.70;99.90;;;;;;5015217;28;20484;-83
2023/04/08 06:09:58;;;;;;;26.03;17.87;;;10.70;99.90;;;;;;5021271;28;20454;-83
2023/04/08 06:12:25;;;;;;;31.63;21.30;;;10.70;99.90;;;;;;5013984;28;20449;-82
2023/04/08 06:14:55;;;;;;;29.60;18.70;;;10.90;99.90;;;;;;5014292;28;20488;-83
2023/04/08 06:17:23;;;;;;;29.30;19.53;;;11.10;99.90;;;;;;5029238;28;20544;-81
2023/04/08 06:19:50;;;;;;;30.17;21.73;;;10.90;99.90;;;;;;5014118;28;20465;-82
2023/04/08 06:22:18;;;;;;;29.77;19.77;;;11.10;99.90;;;;;;5024281;28;20468;-80
2023/04/08 06:24:58;;;;;;;26.47;19.07;;;11.10;99.90;;;;;;5748647;22;20504;-83
2023/04/08 06:27:38;;;;;;;28.97;18.50;;;10.80;99.90;;;;;;5092778;28;20463;-81
2023/04/08 06:30:57;;;;;;;25.37;16.93;;;10.70;99.90;;;;;;5077040;28;20459;-82
2023/04/08 06:33:33;;;;;;;25.93;16.77;;;10.60;99.90;;;;;;5077350;28;20447;-82
2023/04/08 06:36:06;;;;;;;24.37;16.63;;;10.60;99.90;;;;;;5085797;28;20451;-82
2023/04/08 06:38:34;;;;;;;24.37;17.93;;;10.60;99.90;;;;;;5078245;28;20424;-81
2023/04/08 06:44:31;;;;;;;25.20;17.13;;;10.60;99.90;;;;;;5011408;28;20683;-82
2023/04/08 06:46:58;;;;;;;22.13;16.53;;;10.60;99.90;;;;;;5015635;28;20528;-82
2023/04/08 06:49:26;;;;;;;25.67;16.77;;;10.60;99.90;;;;;;5010461;28;20473;-84
2023/04/08 06:51:52;;;;;;;23.77;15.80;;;10.60;99.90;;;;;;5017445;28;20529;-82
2023/04/08 06:59:36;;;;;;;24.33;16.40;;;10.90;99.90;;;;;;5547459;22;20488;-83
2023/04/08 07:02:08;;;;;;;28.00;19.07;;;10.90;99.90;;;;;;5009522;28;20467;-83
2023/04/08 07:04:37;;;;;;;24.10;16.87;;;10.90;99.90;;;;;;5004887;28;20478;-80
2023/04/08 07:07:04;;;;;;;23.87;17.40;;;11.10;99.90;;;;;;4959319;28;20488;-81
2023/04/08 07:09:42;;;;;;;24.70;16.10;;;11.20;99.90;;;;;;4983265;28;20470;-81
2023/04/08 07:12:13;;;;;;;28.87;20.30;;;11.10;99.90;;;;;;4969009;28;20463;-82
2023/04/08 07:14:43;;;;;;;28.50;19.90;;;11.10;99.90;;;;;;4954510;28;20464;-82
2023/04/08 07:17:27;;;;;;;28.47;18.70;;;11.10;99.90;;;;;;5379293;22;20483;-81
2023/04/08 07:20:14;;;;;;;25.93;17.63;;;11.10;99.90;;;;;;5494462;22;20482;-80
2023/04/08 07:22:43;;;;;;;27.83;18.00;;;11.10;99.90;;;;;;5152696;22;20499;-82
2023/04/08 07:30:27;;;;;;;26.53;18.80;;;11.10;99.90;;;;;;5027410;22;20498;-82
2023/04/08 07:33:05;;;;;;;28.43;19.63;;;11.10;99.90;;;;;;5016344;28;20457;-83
2023/04/08 07:35:32;;;;;;;29.90;20.77;;;11.10;99.90;;;;;;4976324;28;20486;-82
2023/04/08 07:38:15;;;;;;;31.23;21.60;;;11.10;99.90;;;;;;4990903;28;20505;-81
2023/04/08 07:40:50;;;;;;;30.57;21.87;;;11.10;99.90;;;;;;4985508;28;20563;-82
2023/04/08 07:43:39;;;;;;;28.77;20.43;;;11.20;99.90;;;;;;4982377;28;20978;-82
2023/04/08 07:46:09;;;;;;;30.53;21.67;;;11.30;99.90;;;;;;4982511;28;20478;-82
2023/04/08 07:48:41;;;;;;;29.20;20.10;;;11.50;99.90;;;;;;4972735;28;20471;-83
2023/04/08 07:51:14;;;;;;;31.37;21.37;;;12.10;99.90;;;;;;4974284;28;20489;-82
2023/04/08 07:53:48;;;;;;;28.93;20.70;;;12.20;99.90;;;;;;4971958;28;20482;-83
2023/04/08 07:56:34;;;;;;;29.30;20.77;;;12.30;99.90;;;;;;4987318;28;20475;-83
2023/04/08 07:59:57;;;;;;;31.03;21.57;;;12.10;99.90;;;;;;5010375;28;20548;-81
2023/04/08 08:02:41;;;;;;;31.00;22.80;;;11.90;99.90;;;;;;4970086;28;20458;-81
2023/04/08 08:05:11;;;;;;;30.70;22.20;;;11.90;99.90;;;;;;4993397;28;20510;-83
2023/04/08 08:07:55;;;;;;;33.53;23.70;;;11.80;99.90;;;;;;4988828;28;20487;-83
2023/04/08 08:10:26;;;;;;;32.50;22.33;;;11.90;99.90;;;;;;4994556;28;20450;-82
2023/04/08 08:12:56;;;;;;;30.23;22.30;;;11.80;99.90;;;;;;4984388;28;20467;-85
2023/04/08 08:15:23;;;;;;;33.20;23.00;;;11.80;99.90;;;;;;4977756;28;20467;-81
2023/04/08 08:17:55;;;;;;;35.33;25.80;;;11.90;99.90;;;;;;4977568;28;20467;-82
2023/04/08 08:20:32;;;;;;;31.60;22.27;;;11.90;99.90;;;;;;4991020;28;21692;-83
2023/04/08 08:23:22;;;;;;;34.43;23.57;;;11.70;99.90;;;;;;4976208;28;20461;-82
2023/04/08 08:26:09;;;;;;;31.20;23.47;;;11.70;99.90;;;;;;4976176;28;22014;-84
2023/04/08 08:28:44;;;;;;;32.83;23.67;;;11.80;99.90;;;;;;4980812;28;21018;-84
2023/04/08 08:31:14;;;;;;;32.00;24.13;;;11.80;99.90;;;;;;4960450;28;20476;-82
2023/04/08 08:33:44;;;;;;;32.03;23.23;;;11.80;99.90;;;;;;4994195;28;20520;-83
2023/04/08 08:36:28;;;;;;;33.50;24.50;;;12.30;99.90;;;;;;4995171;28;20447;-83
2023/04/08 08:39:02;;;;;;;30.73;23.20;;;12.60;99.90;;;;;;4990705;28;20470;-84
2023/04/08 08:41:42;;;;;;;30.20;21.80;;;12.50;99.90;;;;;;4980099;28;20544;-82
2023/04/08 08:44:15;;;;;;;32.97;23.03;;;12.30;99.90;;;;;;4977179;28;20465;-83
2023/04/08 08:46:48;;;;;;;32.03;23.00;;;12.20;99.90;;;;;;4975519;28;20479;-84
2023/04/08 08:49:15;;;;;;;36.90;22.90;;;12.40;99.90;;;;;;4975741;28;20454;-82
2023/04/08 08:51:46;;;;;;;30.23;22.63;;;12.30;99.90;;;;;;4977247;28;20462;-82
2023/04/08 08:54:28;;;;;;;31.50;21.13;;;12.10;99.90;;;;;;4973274;28;20475;-80
2023/04/08 08:56:58;;;;;;;29.17;20.20;;;11.90;99.90;;;;;;4969352;28;21762;-84
2023/04/08 08:59:37;;;;;;;31.27;21.80;;;12.00;99.90;;;;;;4976571;28;20545;-82
2023/04/08 09:02:30;;;;;;;30.30;20.80;;;12.30;99.90;;;;;;4976904;28;20471;-83
2023/04/08 09:05:05;;;;;;;30.40;19.90;;;12.70;99.90;;;;;;4976400;28;20561;-81
2023/04/08 09:07:45;;;;;;;27.33;20.93;;;12.80;99.90;;;;;;4982702;28;20492;-81
2023/04/08 09:10:31;;;;;;;28.70;19.40;;;12.70;99.90;;;;;;4989977;28;20538;-83
2023/04/08 09:13:01;;;;;;;29.37;20.83;;;12.80;99.90;;;;;;4981760;28;20505;-82
2023/04/08 09:15:31;;;;;;;30.43;21.43;;;13.10;99.90;;;;;;4970626;28;20495;-82
2023/04/08 09:18:38;;;;;;;31.10;21.20;;;13.00;99.80;;;;;;4984338;28;20456;-84
2023/04/08 09:21:21;;;;;;;29.63;21.43;;;12.60;99.90;;;;;;4945755;28;20470;-83
2023/04/08 09:23:53;;;;;;;31.70;21.27;;;12.60;99.90;;;;;;4991025;28;20485;-83
2023/04/08 09:26:51;;;;;;;29.87;21.77;;;12.80;99.90;;;;;;4985448;28;21259;-81
2023/04/08 09:29:26;;;;;;;25.73;19.53;;;12.60;99.90;;;;;;4980382;28;20459;-82
2023/04/08 09:32:24;;;;;;;28.97;20.30;;;12.50;99.90;;;;;;5009495;28;20454;-81
2023/04/08 09:34:59;;;;;;;27.50;20.67;;;12.50;99.90;;;;;;4994461;28;20490;-84
2023/04/08 09:37:26;;;;;;;29.57;21.30;;;13.00;99.90;;;;;;5010983;28;20434;-81
2023/04/08 09:40:06;;;;;;;28.73;20.40;;;13.00;99.60;;;;;;5001954;28;20477;-85
2023/04/08 09:42:39;;;;;;;29.33;20.63;;;13.20;99.30;;;;;;5019297;28;20489;-83
2023/04/08 09:45:12;;;;;;;28.63;20.87;;;13.00;99.10;;;;;;5016743;28;20489;-83
2023/04/08 09:48:04;;;;;;;33.67;22.73;;;12.90;99.20;;;;;;5023841;28;20582;-84
2023/04/08 09:50:41;;;;;;;34.20;22.77;;;13.20;98.80;;;;;;4991909;28;20587;-82
2023/04/08 09:53:17;;;;;;;36.57;23.93;;;13.40;98.10;;;;;;4993609;28;20549;-81
2023/04/08 09:55:59;;;;;;;34.00;24.10;;;13.20;98.00;;;;;;4980076;28;20486;-81
2023/04/08 09:59:16;;;;;;;37.00;26.73;;;13.40;98.30;;;;;;4977259;28;20467;-83
2023/04/08 10:01:56;;;;;;;46.73;27.53;;;13.50;97.80;;;;;;4977134;28;20469;-85
2023/04/08 10:04:41;;;;;;;;;;;;;;;;;;;;;
2023/04/08 10:07:16;;;;;;;44.10;27.00;;;13.40;97.40;;;;;;4991828;28;20489;-82
2023/04/08 10:09:48;;;;;;;48.23;30.63;;;13.90;97.30;;;;;;4992333;28;21118;-84
2023/04/08 10:12:28;;;;;;;45.20;28.40;;;14.20;95.70;;;;;;4978613;28;20819;-84
2023/04/08 10:15:28;;;;;;;41.20;25.13;;;13.90;95.50;;;;;;4975430;28;20572;-84
2023/04/08 10:18:06;;;;;;;37.57;25.67;;;13.90;95.80;;;;;;4970017;28;20566;-83
2023/04/08 10:20:38;;;;;;;34.30;24.13;;;14.20;95.30;;;;;;4979659;28;20457;-83
2023/04/08 10:23:53;;;;;;;39.07;27.00;;;14.50;94.90;;;;;;4986930;28;20470;-84
2023/04/08 10:26:34;;;;;;;36.63;24.80;;;14.90;92.90;;;;;;4977671;28;20470;-83
2023/04/08 10:29:47;;;;;;;32.27;23.70;;;14.70;93.10;;;;;;4981206;28;21040;-84
2023/04/08 10:32:43;;;;;;;34.83;23.80;;;14.50;94.00;;;;;;4946493;28;20470;-84
2023/04/08 10:35:27;;;;;;;33.90;25.60;;;14.20;94.50;;;;;;4974703;28;20490;-83
2023/04/08 10:38:05;;;;;;;30.47;24.13;;;14.00;95.00;;;;;;4987443;28;20888;-85
2023/04/08 10:40:41;;;;;;;29.57;21.87;;;14.10;95.30;;;;;;4989502;28;20541;-84
2023/04/08 10:43:17;;;;;;;26.50;22.27;;;14.40;94.90;;;;;;4985553;28;20457;-83
2023/04/08 10:45:53;;;;;;;26.83;20.33;;;14.20;94.50;;;;;;4981966;28;20458;-83
2023/04/08 10:48:28;;;;;;;27.43;22.23;;;14.20;93.60;;;;;;4994278;28;21229;-82
2023/04/08 10:51:16;;;;;;;27.77;22.37;;;14.40;92.40;;;;;;4982366;28;20459;-84
2023/04/08 10:53:45;;;;;;;23.97;21.27;;;14.20;92.60;;;;;;4982937;28;20487;-84
2023/04/08 10:56:16;;;;;;;27.17;22.40;;;13.70;93.50;;;;;;4968992;28;20833;-82
2023/04/08 10:58:55;;;;;;;29.63;22.43;;;13.90;94.30;;;;;;4955276;28;20465;-84
2023/04/08 11:01:26;;;;;;;28.30;22.60;;;14.30;93.60;;;;;;4989921;28;20458;-83
2023/04/08 11:04:02;;;;;;;30.90;23.93;;;14.40;92.30;;;;;;4994276;28;20478;-82
2023/04/08 11:06:38;;;;;;;33.67;25.30;;;14.40;92.70;;;;;;5004569;28;20998;-83
2023/04/08 11:09:11;;;;;;;29.03;22.47;;;14.50;92.80;;;;;;4984323;28;20446;-84
2023/04/08 11:11:43;;;;;;;28.93;23.53;;;14.20;92.90;;;;;;5004649;28;20450;-83
2023/04/08 11:14:18;;;;;;;30.67;22.83;;;14.00;93.30;;;;;;4993704;28;20480;-83
2023/04/08 11:16:49;;;;;;;28.07;23.00;;;14.20;93.30;;;;;;5005114;28;20435;-83
2023/04/08 11:19:28;;;;;;;33.40;23.93;;;14.50;91.90;;;;;;5008559;28;20462;-81
2023/04/08 11:22:11;;;;;;;27.13;21.23;;;14.80;91.20;;;;;;5014470;28;20435;-83
2023/04/08 11:25:25;;;;;;;31.50;21.60;;;14.30;91.20;;;;;;5012964;28;20501;-82
2023/04/08 11:28:00;;;;;;;33.57;24.90;;;14.40;92.10;;;;;;5026813;28;20504;-82
2023/04/08 11:30:37;;;;;;;32.90;23.57;;;14.40;91.80;;;;;;5014335;28;20453;-83
2023/04/08 11:33:12;;;;;;;33.07;23.60;;;14.50;92.00;;;;;;5015554;28;20546;-83
2023/04/08 11:35:43;;;;;;;33.20;24.93;;;14.50;92.00;;;;;;4986418;28;20480;-82
2023/04/08 11:38:17;;;;;;;35.03;23.93;;;14.50;92.20;;;;;;5022777;28;20464;-82
2023/04/08 11:41:00;;;;;;;34.80;24.10;;;14.40;91.90;;;;;;5018177;28;20483;-84
2023/04/08 11:43:35;;;;;;;35.37;24.13;;;14.20;92.30;;;;;;5009109;28;20580;-84
2023/04/08 11:46:10;;;;;;;29.17;22.27;;;14.50;92.10;;;;;;4985714;28;20554;-84
2023/04/08 11:48:40;;;;;;;33.63;24.97;;;14.50;91.40;;;;;;4979588;28;20651;-83
2023/04/08 11:51:17;;;;;;;37.37;24.63;;;14.30;91.60;;;;;;4988257;28;20457;-82
2023/04/08 11:53:50;;;;;;;34.10;22.17;;;13.90;92.00;;;;;;4987572;28;20589;-83
2023/04/08 11:56:29;;;;;;;34.20;22.00;;;13.70;92.60;;;;;;4969709;28;20460;-84
2023/04/08 11:59:10;;;;;;;35.63;22.70;;;13.90;93.10;;;;;;4982008;28;20454;-83
2023/04/08 12:01:45;;;;;;;33.63;22.93;;;14.20;92.20;;;;;;4985625;28;20471;-83
2023/04/08 12:04:44;;;;;;;37.33;25.10;;;14.10;92.30;;;;;;4988970;28;20457;-82
2023/04/08 12:07:16;;;;;;;32.43;22.40;;;13.90;92.50;;;;;;4996674;28;20479;-82
2023/04/08 12:10:00;;;;;;;35.43;24.10;;;14.30;92.00;;;;;;4973360;28;20494;-83
2023/04/08 12:12:34;;;;;;;36.27;24.10;;;14.20;91.70;;;;;;4993044;28;20458;-83
2023/04/08 12:15:13;;;;;;;34.43;23.40;;;13.90;92.10;;;;;;4988471;28;20634;-82
2023/04/08 12:17:54;;;;;;;31.33;22.37;;;14.00;92.30;;;;;;4988070;28;20539;-82
2023/04/08 12:20:30;;;;;;;34.53;23.50;;;14.10;92.20;;;;;;4985820;28;20455;-85
2023/04/08 12:23:30;;;;;;;29.90;22.33;;;14.10;92.10;;;;;;4977218;28;20480;-84
2023/04/08 12:26:16;;;;;;;32.37;21.80;;;14.40;91.80;;;;;;4992853;28;20458;-83
2023/04/08 12:29:26;;;;;;;34.10;25.23;;;14.60;91.00;;;;;;4992325;28;20461;-82
2023/04/08 12:32:31;;;;;;;30.10;21.60;;;14.40;91.30;;;;;;4989098;28;20512;-80
2023/04/08 12:35:43;;;;;;;33.27;23.00;;;14.20;91.60;;;;;;4997317;28;20488;-86
2023/04/08 12:38:27;;;;;;;27.37;21.70;;;14.10;92.30;;;;;;4997322;28;20459;-83
2023/04/08 12:40:58;;;;;;;32.53;22.80;;;14.40;91.30;;;;;;5003924;28;20449;-80
2023/04/08 12:43:38;;;;;;;34.93;22.77;;;14.30;91.10;;;;;;4941549;28;20534;-81
2023/04/08 12:49:48;;;;;;;31.43;21.70;;;13.80;92.10;;;;;;4954771;28;22175;-84
2023/04/08 12:52:56;;;;;;;30.60;21.13;;;13.70;92.60;;;;;;4909556;28;20543;-82
2023/04/08 12:56:02;;;;;;;31.00;22.07;;;13.70;92.90;;;;;;4942812;28;20511;-83
2023/04/08 12:58:42;;;;;;;29.50;20.07;;;13.80;92.90;;;;;;4929897;28;20463;-84
2023/04/08 13:01:35;;;;;;;28.47;22.57;;;13.70;92.80;;;;;;4950049;28;20463;-83
2023/04/08 13:04:18;;;;;;;27.73;20.40;;;13.80;92.70;;;;;;4977027;28;20504;-83
2023/04/08 13:07:13;;;;;;;31.97;22.57;;;13.80;92.50;;;;;;4977407;28;20449;-84
2023/04/08 13:10:13;;;;;;;30.97;21.57;;;14.20;92.50;;;;;;4976912;28;20463;-83
2023/04/08 13:12:43;;;;;;;27.77;22.37;;;14.40;92.00;;;;;;4982327;28;20479;-82
2023/04/08 13:15:23;;;;;;;28.80;20.97;;;14.40;91.10;;;;;;4975469;28;20514;-84
2023/04/08 13:18:04;;;;;;;30.90;21.20;;;14.20;91.50;;;;;;4978574;28;20462;-84
2023/04/08 13:20:44;;;;;;;29.20;22.10;;;14.30;91.90;;;;;;4979681;28;20470;-83
2023/04/08 13:23:20;;;;;;;32.70;22.77;;;14.20;91.90;;;;;;4978560;28;20467;-83
2023/04/08 13:26:15;;;;;;;31.83;24.13;;;14.50;92.10;;;;;;4982532;28;20469;-82
2023/04/08 13:29:19;;;;;;;32.10;23.33;;;14.40;91.70;;;;;;4987374;28;21079;-83
2023/04/08 13:32:00;;;;;;;32.90;23.80;;;14.70;91.60;;;;;;4986063;28;20467;-82
2023/04/08 13:34:43;;;;;;;31.30;24.90;;;14.90;90.70;;;;;;4983313;28;20478;-82
2023/04/08 13:37:43;;;;;;;31.40;22.13;;;15.20;90.10;;;;;;4979353;28;20453;-82
2023/04/08 13:40:20;;;;;;;27.73;20.67;;;14.90;90.00;;;;;;4990632;28;20845;-84
2023/04/08 13:43:02;;;;;;;22.50;18.10;;;14.60;89.70;;;;;;4973813;28;20458;-82
2023/04/08 13:45:55;;;;;;;22.90;18.90;;;14.60;90.10;;;;;;4988715;28;20439;-85